ADDS METAR Data INFO
IDs: Format: Raw Decoded Include TAF

Data at: 1916 UTC 19 Jul 2018

KIAD 191852Z 17004KT 10SM SCT065 BKN250 28/14 A3008 RMK AO2 SLP184 T02830144
KIAD 191752Z 00000KT 10SM BKN050 BKN250 28/13 A3009 RMK AO2 SLP188 T02780128 10283 20206 58009
KIAD 191652Z VRB03KT 10SM FEW045 BKN250 28/14 A3011 RMK AO2 SLP194 T02780139
KIAD 191552Z VRB03KT 10SM FEW045 BKN250 26/13 A3012 RMK AO2 SLP197 T02610128
KIAD 191452Z VRB04KT 10SM FEW075 FEW250 26/13 A3012 RMK AO2 SLP197 T02560128 51007
KIAD 191352Z 07006KT 10SM FEW075 FEW250 25/13 A3012 RMK AO2 SLP195 T02500133 $
KIAD 191252Z 04006KT 10SM FEW075 FEW250 23/14 A3011 RMK AO2 SLP194 T02280139 $
KIAD 191152Z 01005KT 10SM FEW075 21/15 A3010 RMK AO2 SLP189 T02060150 10206 20161 53014
KIAD 191052Z 33005KT 10SM FEW075 18/17 A3009 RMK AO2 SLP185 T01830167
KIAD 190952Z 02005KT 10SM SCT080 19/16 A3006 RMK AO2 SLP178 T01890156
KIAD 190852Z 00000KT 10SM BKN080 17/16 A3006 RMK AO2 SLP175 T01720156 53007
KIAD 190752Z 00000KT 10SM SCT080 17/16 A3005 RMK AO2 SLP172 T01670156
KIAD 190652Z 00000KT 10SM SCT070 17/16 A3004 RMK AO2 SLP170 T01670156
KIAD 190552Z 00000KT 10SM FEW080 18/16 A3004 RMK AO2 SLP168 T01780161 10272 20178 53013
KIAD 190452Z 31005KT 10SM CLR 21/16 A3002 RMK AO2 SLP163 T02060156 402940178
KIAD 190352Z 00000KT 10SM CLR 19/16 A3001 RMK AO2 SLP160 T01890161
KIAD 190252Z 30005KT 10SM CLR 22/16 A3000 RMK AO2 SLP156 T02170156 51012
KIAD 190152Z 28004KT 10SM CLR 23/16 A2999 RMK AO2 SLP154 T02280156
KIAD 190052Z 31006KT 10SM FEW080 24/15 A2998 RMK AO2 SLP148 T02390150
KIAD 182352Z 31007KT 10SM FEW080 27/14 A2997 RMK AO2 SLP144 T02720139 10294 20272 53002
KIAD 182252Z 31009KT 10SM CLR 28/13 A2996 RMK AO2 SLP142 T02830128
KIAD 182152Z 32010KT 10SM FEW070 28/13 A2995 RMK AO2 SLP139 T02830133
KIAD 182052Z 00000KT 10SM SCT065 28/14 A2996 RMK AO2 SLP142 T02830139 58005
KIAD 181952Z 02008KT 10SM SCT065 27/13 A2997 RMK AO2 SLP145 T02720128
KIAD 181852Z 34010KT 10SM SCT065 28/13 A2997 RMK AO2 SLP146 T02830128
KIAD 181752Z 34008KT 10SM SCT055 28/13 A2998 RMK AO2 SLP148 T02830128 10283 20211 56007
KIAD 181652Z 35004KT 10SM SCT045 27/14 A2998 RMK AO2 SLP149 T02720139
KIAD 181552Z 02010KT 10SM SCT040 SCT250 27/13 A2998 RMK AO2 SLP151 T02720128
KIAD 181452Z 34006KT 10SM FEW045 FEW250 26/15 A3000 RMK AO2 SLP155 T02560150 51008
KIAD 181352Z 36007KT 10SM FEW250 25/15 A2999 RMK AO2 SLP154 T02500150
KIAD 181252Z 31008KT 10SM CLR 22/16 A2999 RMK AO2 SLP152 T02220156
KIAD 181152Z 30004KT 10SM FEW160 BKN250 21/16 A2997 RMK AO2 SLP147 70111 T02110156 10217 20189 53017
KIAD 181052Z 32007KT 10SM FEW180 SCT250 19/15 A2995 RMK AO2 SLP140 T01940150
KIAD 180952Z 31007KT 10SM FEW120 SCT250 19/16 A2993 RMK AO2 SLP134 T01890161
KIAD 180852Z 32008KT 10SM FEW250 19/17 A2992 RMK AO2 SLP130 T01890167 52006
KIAD 180752Z 32005KT 10SM FEW250 20/18 A2992 RMK AO2 SLP129 T02000178